Time;durP1;ratioP1;P1;durP2;ratioP2;P2;SDS_P1;SDS_P2;PMS_P1;PMS_P2;Temp;Humidity;BMP_temperature;BMP_pressure;BME280_temperature;BME280_humidity;BME280_pressure;Samples;Min_cycle;Max_cycle;Signal;HPM_P1;HPM_P2
2023/04/15 00:00:07;;;;;;;6.40;3.83;;;;;;;5.38;78.86;98580.34;339606;29;1116;-80
2023/04/15 00:00:19;;;;;;;5.75;3.85;;;;;;;5.38;78.52;98579.50;339145;29;1761;-79
2023/04/15 00:00:32;;;;;;;5.57;3.92;;;;;;;5.37;79.01;98585.53;339853;29;1208;-79
2023/04/15 00:00:44;;;;;;;5.63;4.00;;;;;;;5.38;79.16;98576.94;339597;29;1415;-80
2023/04/15 00:00:58;;;;;;;7.25;3.80;;;;;;;5.43;78.98;98587.09;340133;29;1150;-79
2023/04/15 00:01:10;;;;;;;7.47;3.63;;;;;;;5.44;79.59;98584.47;339902;29;1141;-80
2023/04/15 00:01:23;;;;;;;6.13;3.70;;;;;;;5.45;80.19;98581.00;339584;29;2032;-80
2023/04/15 00:01:36;;;;;;;6.75;4.10;;;;;;;5.49;79.87;98587.75;339666;29;1027;-79
2023/04/15 00:01:48;;;;;;;8.30;4.32;;;;;;;5.49;79.49;98582.59;340524;29;1190;-79
2023/04/15 00:02:00;;;;;;;7.45;4.10;;;;;;;5.52;80.62;98585.09;341193;29;1082;-80
2023/04/15 00:02:17;;;;;;;7.75;4.03;;;;;;;5.57;80.32;98583.25;340756;29;2752;-78
2023/04/15 00:02:30;;;;;;;8.40;4.20;;;;;;;5.60;81.10;98580.56;338532;29;1000;-79
2023/04/15 00:02:43;;;;;;;7.72;4.15;;;;;;;5.65;80.71;98587.31;338791;29;1180;-79
2023/04/15 00:02:55;;;;;;;7.15;4.30;;;;;;;5.66;81.24;98589.84;338228;29;1205;-79
2023/04/15 00:03:07;;;;;;;7.00;4.43;;;;;;;5.68;80.98;98582.06;338815;29;1206;-80
2023/04/15 00:03:19;;;;;;;7.07;4.25;;;;;;;5.70;81.19;98585.47;339896;29;1178;-80
2023/04/15 00:03:33;;;;;;;6.63;4.15;;;;;;;5.70;81.72;98583.72;338737;29;1037;-79
2023/04/15 00:03:49;;;;;;;6.88;4.20;;;;;;;5.75;80.89;98588.72;339713;29;1164;-80
2023/04/15 00:04:01;;;;;;;7.05;4.20;;;;;;;5.74;81.81;98582.72;340052;29;1114;-80
2023/04/15 00:04:13;;;;;;;6.90;4.00;;;;;;;5.78;81.05;98584.31;340081;29;1020;-79
2023/04/15 00:04:26;;;;;;;7.15;4.00;;;;;;;5.78;81.04;98581.75;339700;29;1028;-79
2023/04/15 00:04:38;;;;;;;8.50;4.45;;;;;;;5.79;80.72;98580.00;341371;29;1185;-80
2023/04/15 00:04:51;;;;;;;11.02;5.20;;;;;;;5.76;80.72;98586.09;342058;29;1071;-78
2023/04/15 00:05:04;;;;;;;13.88;6.28;;;;;;;5.77;80.65;98587.78;342364;28;1239;-79
2023/04/15 00:05:16;;;;;;;15.45;6.78;;;;;;;5.80;81.32;98584.28;341397;29;772;-79
2023/04/15 00:05:29;;;;;;;14.98;6.75;;;;;;;5.83;81.07;98589.34;341001;29;1207;-79
2023/04/15 00:05:42;;;;;;;13.93;6.47;;;;;;;5.79;81.28;98586.03;342631;28;1244;-80
2023/04/15 00:05:54;;;;;;;11.83;5.90;;;;;;;5.84;81.24;98588.47;342468;28;1110;-78
2023/04/15 00:06:06;;;;;;;11.43;5.53;;;;;;;5.78;81.08;98586.06;342438;28;1047;-80
2023/04/15 00:06:19;;;;;;;11.93;5.47;;;;;;;5.78;81.65;98584.31;342300;28;1186;-79
2023/04/15 00:06:31;;;;;;;10.77;5.50;;;;;;;5.76;81.18;98582.69;343845;28;1073;-80
2023/04/15 00:06:52;;;;;;;11.32;5.55;;;;;;;5.71;81.03;98587.13;342719;28;1991;-79
2023/04/15 00:07:04;;;;;;;10.90;5.18;;;;;;;5.70;81.33;98581.13;340590;29;1024;-78
2023/04/15 00:07:16;;;;;;;9.90;4.97;;;;;;;5.70;81.66;98580.28;341856;28;997;-78
2023/04/15 00:07:28;;;;;;;10.77;5.13;;;;;;;5.72;81.39;98583.69;343462;28;784;-78
2023/04/15 00:07:40;;;;;;;10.90;4.95;;;;;;;5.73;81.70;98580.19;342033;28;1055;-78
2023/04/15 00:07:53;;;;;;;10.73;4.93;;;;;;;5.71;81.44;98581.97;342284;28;1227;-78
2023/04/15 00:08:05;;;;;;;9.30;4.80;;;;;;;5.74;81.31;98577.56;342270;28;1064;-78
2023/04/15 00:08:17;;;;;;;8.13;4.70;;;;;;;5.72;81.49;98583.69;342198;28;1494;-78
2023/04/15 00:08:29;;;;;;;9.70;4.60;;;;;;;5.72;80.84;98591.41;342528;28;1071;-78
2023/04/15 00:08:42;;;;;;;9.50;4.68;;;;;;;5.67;81.16;98580.38;342688;28;1102;-77
2023/04/15 00:08:54;;;;;;;8.27;4.78;;;;;;;5.66;81.38;98583.84;340916;29;1229;-78
2023/04/15 00:09:06;;;;;;;8.38;4.80;;;;;;;5.68;81.34;98579.50;341342;29;1107;-78
2023/04/15 00:09:19;;;;;;;8.45;4.53;;;;;;;5.67;81.60;98582.94;341185;28;1020;-77
2023/04/15 00:09:31;;;;;;;7.55;4.43;;;;;;;5.63;81.19;98583.94;341231;28;1200;-78
2023/04/15 00:09:43;;;;;;;8.55;4.55;;;;;;;5.62;81.85;98582.25;342532;28;1159;-78
2023/04/15 00:09:56;;;;;;;8.20;4.70;;;;;;;5.61;81.84;98581.41;342659;28;1184;-77
2023/04/15 00:10:08;;;;;;;9.90;4.88;;;;;;;5.58;81.76;98579.75;344153;28;1019;-78
2023/04/15 00:10:20;;;;;;;10.95;4.85;;;;;;;5.55;82.25;98581.56;343733;28;1056;-78
2023/04/15 00:10:32;;;;;;;11.60;5.00;;;;;;;5.57;81.80;98578.09;342285;28;1084;-78
2023/04/15 00:10:45;;;;;;;10.35;5.00;;;;;;;5.57;82.06;98580.66;342554;28;1051;-78
2023/04/15 00:11:01;;;;;;;9.43;4.97;;;;;;;5.58;81.56;98586.66;342516;28;1062;-78
2023/04/15 00:11:14;;;;;;;8.82;4.93;;;;;;;5.57;81.62;98580.66;342502;28;1063;-77
2023/04/15 00:11:25;;;;;;;9.57;5.10;;;;;;;5.57;81.33;98580.66;342451;28;1029;-77
2023/04/15 00:11:37;;;;;;;10.10;5.38;;;;;;;5.56;82.28;98578.97;342337;28;1159;-78
2023/04/15 00:11:50;;;;;;;9.25;5.25;;;;;;;5.59;82.23;98578.88;342425;28;1032;-78
2023/04/15 00:12:02;;;;;;;9.00;5.00;;;;;;;5.60;82.32;98584.88;342715;28;1249;-77
2023/04/15 00:12:14;;;;;;;10.25;5.05;;;;;;;5.63;81.99;98586.50;342668;28;1040;-78
2023/04/15 00:12:27;;;;;;;11.48;5.10;;;;;;;5.61;82.76;98589.13;342857;28;1185;-78
2023/04/15 00:12:40;;;;;;;10.30;4.90;;;;;;;5.65;82.76;98590.72;342952;28;1051;-78
2023/04/15 00:12:52;;;;;;;9.27;4.57;;;;;;;5.66;82.76;98583.84;342549;28;1016;-78
2023/04/15 00:13:04;;;;;;;8.77;4.43;;;;;;;5.63;82.46;98578.78;342330;28;1068;-78
2023/04/15 00:13:19;;;;;;;8.30;4.45;;;;;;;5.65;82.68;98577.00;342085;28;1973;-77
2023/04/15 00:13:34;;;;;;;7.15;4.28;;;;;;;5.66;82.34;98584.69;342981;28;1174;-78
2023/04/15 00:13:45;;;;;;;8.32;4.25;;;;;;;5.67;82.71;98586.38;342826;28;836;-78
2023/04/15 00:13:58;;;;;;;8.52;4.40;;;;;;;5.69;82.03;98583.75;342451;28;1151;-78
2023/04/15 00:14:10;;;;;;;7.05;4.50;;;;;;;5.66;81.79;98584.69;341141;29;1139;-77
2023/04/15 00:14:22;;;;;;;7.22;4.40;;;;;;;5.67;82.24;98583.78;341382;29;1302;-78
2023/04/15 00:14:37;;;;;;;7.55;4.10;;;;;;;5.69;82.38;98581.16;341408;29;1201;-78
2023/04/15 00:14:50;;;;;;;7.90;4.10;;;;;;;5.70;82.15;98588.03;340609;29;1514;-78
2023/04/15 00:15:02;;;;;;;9.38;4.30;;;;;;;5.69;82.67;98586.31;341196;29;1045;-77
2023/04/15 00:15:14;;;;;;;8.80;4.30;;;;;;;5.71;82.49;98582.81;340500;29;1475;-78
2023/04/15 00:15:26;;;;;;;7.47;4.10;;;;;;;5.74;82.83;98581.91;341234;29;1078;-78
2023/04/15 00:15:38;;;;;;;7.65;4.13;;;;;;;5.75;82.03;98584.41;340042;29;1032;-78
2023/04/15 00:15:51;;;;;;;6.97;4.10;;;;;;;5.78;82.06;98581.75;339851;29;1191;-78
2023/04/15 00:16:03;;;;;;;7.85;4.07;;;;;;;5.83;82.69;98581.59;339907;29;1277;-78
2023/04/15 00:16:15;;;;;;;6.70;3.97;;;;;;;5.83;82.41;98584.19;340110;29;1240;-78
2023/04/15 00:16:27;;;;;;;6.38;3.85;;;;;;;5.83;82.30;98581.59;340581;29;1227;-78
2023/04/15 00:16:39;;;;;;;7.53;3.90;;;;;;;5.85;82.43;98587.56;341444;28;1161;-78
2023/04/15 00:16:54;;;;;;;8.07;3.90;;;;;;;5.85;82.09;98578.97;340547;29;1566;-78
2023/04/15 00:17:07;;;;;;;8.68;3.97;;;;;;;5.87;81.54;98580.59;338853;29;1224;-78
2023/04/15 00:17:41;;;;;;;8.05;4.10;;;;;;;5.90;81.53;98575.38;338215;28;2101;-76
2023/04/15 00:17:53;;;;;;;10.18;4.07;;;;;;;5.96;81.37;98576.97;341044;28;1825;-75
2023/04/15 00:18:06;;;;;;;8.98;3.97;;;;;;;5.98;81.31;98576.00;340860;28;1620;-75
2023/04/15 00:18:18;;;;;;;7.07;3.83;;;;;;;5.99;80.42;98577.69;341340;28;1066;-74
2023/04/15 00:18:31;;;;;;;6.22;3.78;;;;;;;5.99;80.10;98582.84;340696;28;1688;-75
2023/04/15 00:18:43;;;;;;;6.22;3.63;;;;;;;5.98;80.75;98576.00;341232;28;1091;-75
2023/04/15 00:18:55;;;;;;;7.90;3.63;;;;;;;5.97;80.51;98581.22;339962;29;1047;-75
2023/04/15 00:19:07;;;;;;;6.80;3.58;;;;;;;5.98;79.48;98582.91;340331;28;1644;-74
2023/04/15 00:19:19;;;;;;;7.03;3.58;;;;;;;5.99;80.60;98580.25;340838;28;1727;-75
2023/04/15 00:19:32;;;;;;;5.53;3.63;;;;;;;5.98;80.05;98576.00;340769;28;1112;-75
2023/04/15 00:19:44;;;;;;;7.18;3.95;;;;;;;6.00;80.70;98576.81;340678;28;1636;-75
2023/04/15 00:19:58;;;;;;;7.50;4.00;;;;;;;6.00;79.88;98579.38;340775;29;1080;-75
2023/04/15 00:20:10;;;;;;;6.57;3.65;;;;;;;6.03;79.75;98581.00;340762;29;1061;-74
2023/04/15 00:20:22;;;;;;;6.80;3.72;;;;;;;6.03;80.02;98577.59;340716;29;1146;-75
2023/04/15 00:20:34;;;;;;;6.82;3.70;;;;;;;6.05;80.08;98578.41;340606;28;1644;-74
2023/04/15 00:20:46;;;;;;;6.63;3.60;;;;;;;6.07;80.00;98579.19;341943;28;1293;-75
2023/04/15 00:20:59;;;;;;;6.30;3.60;;;;;;;6.09;79.87;98579.97;340923;29;1084;-74
2023/04/15 00:21:11;;;;;;;5.03;3.40;;;;;;;6.10;79.35;98579.94;341016;29;1051;-75
2023/04/15 00:21:23;;;;;;;5.85;3.67;;;;;;;6.12;79.65;98572.16;340761;29;1379;-75
2023/04/15 00:21:35;;;;;;;7.45;3.83;;;;;;;6.13;78.75;98574.66;341015;29;1100;-74
2023/04/15 00:21:47;;;;;;;6.70;3.75;;;;;;;6.15;78.96;98569.47;340646;29;1615;-74
2023/04/15 00:21:59;;;;;;;6.18;3.38;;;;;;;6.16;78.79;98571.16;339901;29;1724;-75
2023/04/15 00:22:12;;;;;;;7.13;3.22;;;;;;;6.16;79.05;98568.59;340452;28;1906;-75
2023/04/15 00:22:24;;;;;;;7.38;3.38;;;;;;;6.18;78.84;98574.53;341010;29;1316;-75
2023/04/15 00:22:35;;;;;;;5.80;3.50;;;;;;;6.17;78.23;98576.25;341251;29;943;-74
2023/04/15 00:22:47;;;;;;;5.00;3.35;;;;;;;6.18;78.78;98571.97;340845;29;1692;-75
2023/04/15 00:23:01;;;;;;;6.43;3.40;;;;;;;6.20;78.72;98572.75;341130;29;1327;-75
2023/04/15 00:23:13;;;;;;;6.20;3.40;;;;;;;6.19;78.40;98577.06;341142;29;1304;-75
2023/04/15 00:23:25;;;;;;;5.68;3.42;;;;;;;6.17;78.29;98576.25;339005;29;1578;-74
2023/04/15 00:23:37;;;;;;;6.18;3.42;;;;;;;6.16;78.84;98572.00;339484;29;1304;-75
2023/04/15 00:23:52;;;;;;;6.65;3.50;;;;;;;6.19;79.09;98584.78;339649;29;1377;-75
2023/04/15 00:24:04;;;;;;;6.53;3.40;;;;;;;6.18;78.50;98577.13;339513;29;1114;-75
2023/04/15 00:24:16;;;;;;;6.00;3.38;;;;;;;6.16;78.70;98573.75;339601;29;1136;-75
2023/04/15 00:24:30;;;;;;;5.25;3.25;;;;;;;6.13;78.53;98573.84;339777;29;1146;-75
2023/04/15 00:24:42;;;;;;;5.75;3.30;;;;;;;6.14;78.79;98575.53;339722;29;1319;-74
2023/04/15 00:24:54;;;;;;;6.05;3.30;;;;;;;6.17;78.67;98575.41;339611;29;1351;-74
2023/04/15 00:25:06;;;;;;;5.88;3.28;;;;;;;6.20;78.94;98570.19;340419;29;1266;-74
2023/04/15 00:25:18;;;;;;;5.40;3.28;;;;;;;6.21;78.84;98577.00;340511;29;1185;-74
2023/04/15 00:25:30;;;;;;;4.80;3.00;;;;;;;6.25;78.37;98573.44;341114;29;1051;-74
2023/04/15 00:25:42;;;;;;;4.68;3.00;;;;;;;6.27;78.46;98575.97;341162;28;1047;-74
2023/04/15 00:25:54;;;;;;;4.45;3.00;;;;;;;6.28;78.16;98578.50;339622;28;1688;-75
2023/04/15 00:26:06;;;;;;;4.05;2.80;;;;;;;6.27;77.96;98568.22;340905;28;1369;-75
2023/04/15 00:26:18;;;;;;;3.58;2.70;;;;;;;6.29;77.90;98569.88;341055;29;1074;-75
2023/04/15 00:26:30;;;;;;;4.60;2.95;;;;;;;6.29;77.66;98579.34;341125;28;1222;-75
2023/04/15 00:26:42;;;;;;;5.45;3.10;;;;;;;6.20;77.91;98575.34;340996;28;1074;-75
2023/04/15 00:26:54;;;;;;;5.85;3.10;;;;;;;6.13;78.49;98576.41;339523;28;1785;-75
2023/04/15 00:27:06;;;;;;;5.43;3.03;;;;;;;6.12;78.10;98577.31;340712;28;1066;-75
2023/04/15 00:27:19;;;;;;;5.03;2.90;;;;;;;6.10;78.05;98568.78;340867;28;1039;-74
2023/04/15 00:27:31;;;;;;;5.20;2.97;;;;;;;6.04;78.11;98574.13;339561;29;1468;-75
2023/04/15 00:27:43;;;;;;;6.32;3.20;;;;;;;6.05;78.33;98575.81;339887;29;1322;-75
2023/04/15 00:27:55;;;;;;;7.00;3.22;;;;;;;6.02;78.32;98575.91;341122;28;1181;-74
2023/04/15 00:28:07;;;;;;;6.18;3.20;;;;;;;6.04;78.72;98568.94;340494;29;1166;-74
2023/04/15 00:28:19;;;;;;;5.43;3.03;;;;;;;6.04;78.83;98574.97;339390;29;1070;-75
2023/04/15 00:28:32;;;;;;;5.95;3.08;;;;;;;6.07;78.95;98574.03;339523;29;1403;-75
2023/04/15 00:28:44;;;;;;;5.80;2.93;;;;;;;6.08;79.03;98570.56;339519;29;1440;-75
2023/04/15 00:28:56;;;;;;;5.68;3.00;;;;;;;6.10;78.88;98571.38;339480;29;1311;-75
2023/04/15 00:29:09;;;;;;;5.47;2.83;;;;;;;6.12;78.51;98582.47;339143;29;1202;-75
2023/04/15 00:29:21;;;;;;;4.93;3.00;;;;;;;6.13;78.53;98579.81;339458;29;1059;-75
2023/04/15 00:29:33;;;;;;;4.68;2.92;;;;;;;6.12;78.95;98573.00;339490;29;1075;-75
2023/04/15 00:29:45;;;;;;;4.40;2.65;;;;;;;6.14;78.93;98578.13;339428;29;1528;-75
2023/04/15 00:29:57;;;;;;;3.60;2.50;;;;;;;6.15;78.50;98564.31;338872;29;1039;-75
2023/04/15 00:30:10;;;;;;;4.18;2.65;;;;;;;6.14;78.21;98572.94;338500;29;1760;-75
2023/04/15 00:30:22;;;;;;;5.07;2.58;;;;;;;6.15;78.80;98579.78;338727;29;1349;-74
2023/04/15 00:30:34;;;;;;;6.00;2.60;;;;;;;6.13;78.24;98569.50;339714;29;1224;-75
2023/04/15 00:30:46;;;;;;;6.00;2.78;;;;;;;6.12;78.19;98572.16;339326;29;1435;-75
2023/04/15 00:30:58;;;;;;;6.32;3.22;;;;;;;6.11;78.70;98570.47;338776;29;1763;-75
2023/04/15 00:31:11;;;;;;;6.18;3.25;;;;;;;6.10;79.25;98573.94;339579;29;1424;-75
2023/04/15 00:31:23;;;;;;;5.20;3.00;;;;;;;6.10;79.18;98573.94;339581;29;1534;-75
2023/04/15 00:31:35;;;;;;;4.63;2.88;;;;;;;6.11;78.46;98570.47;339649;29;1166;-75
2023/04/15 00:31:47;;;;;;;5.75;3.13;;;;;;;6.11;78.81;98575.63;339835;29;743;-75
2023/04/15 00:31:59;;;;;;;6.03;3.03;;;;;;;6.08;78.57;98571.41;340234;29;1424;-75
2023/04/15 00:32:11;;;;;;;5.55;3.00;;;;;;;6.05;78.78;98574.06;339690;29;1673;-75
2023/04/15 00:32:23;;;;;;;5.20;2.95;;;;;;;6.05;78.29;98571.50;338115;29;1028;-75
2023/04/15 00:32:35;;;;;;;5.75;3.33;;;;;;;6.06;78.52;98572.34;338429;29;1058;-75
2023/04/15 00:32:47;;;;;;;5.95;3.20;;;;;;;6.07;78.67;98568.88;338803;29;1508;-74
2023/04/15 00:33:01;;;;;;;4.82;3.03;;;;;;;6.08;78.46;98570.56;339431;29;1534;-74
2023/04/15 00:33:15;;;;;;;3.72;2.78;;;;;;;6.07;78.26;98571.44;339922;29;779;-74
2023/04/15 00:33:27;;;;;;;3.90;2.97;;;;;;;6.08;77.91;98575.72;340096;29;1249;-74
2023/04/15 00:33:39;;;;;;;4.55;3.05;;;;;;;6.07;78.30;98568.88;339919;29;1182;-74
2023/04/15 00:33:51;;;;;;;5.05;2.90;;;;;;;6.06;78.13;98573.19;339705;29;1780;-75
2023/04/15 00:34:03;;;;;;;4.70;2.97;;;;;;;6.06;78.57;98568.03;339335;29;1182;-75
2023/04/15 00:34:15;;;;;;;5.18;3.10;;;;;;;6.09;78.24;98572.25;339967;28;1075;-75
2023/04/15 00:34:27;;;;;;;4.97;2.90;;;;;;;6.08;78.37;98570.56;339594;29;1064;-75
2023/04/15 00:34:39;;;;;;;6.32;3.13;;;;;;;6.08;78.05;98566.25;341000;28;2170;-75
2023/04/15 00:34:51;;;;;;;9.45;3.63;;;;;;;6.09;78.34;98573.06;341387;28;1755;-74
2023/04/15 00:35:04;;;;;;;9.27;3.67;;;;;;;6.10;78.01;98571.38;341170;28;1548;-75
2023/04/15 00:35:16;;;;;;;6.90;3.30;;;;;;;6.09;77.48;98572.25;342351;28;1483;-75
2023/04/15 00:35:31;;;;;;;5.50;2.90;;;;;;;6.11;77.61;98562.72;342368;28;1086;-75
2023/04/15 00:35:43;;;;;;;5.88;3.10;;;;;;;6.13;77.80;98568.66;342451;28;1098;-75
2023/04/15 00:35:55;;;;;;;5.30;3.03;;;;;;;6.12;77.99;98567.84;340890;29;1121;-74
2023/04/15 00:36:07;;;;;;;4.80;2.92;;;;;;;6.12;77.68;98572.16;342227;28;1051;-75
2023/04/15 00:36:19;;;;;;;4.57;3.03;;;;;;;6.12;77.66;98567.00;342021;28;1080;-75
2023/04/15 00:36:32;;;;;;;5.72;3.00;;;;;;;6.12;77.54;98564.41;342007;28;1314;-75
2023/04/15 00:36:45;;;;;;;6.35;3.10;;;;;;;6.14;77.45;98572.94;340892;28;1669;-75
2023/04/15 00:36:57;;;;;;;5.65;3.08;;;;;;;6.15;77.26;98566.88;343324;28;1075;-75
2023/04/15 00:37:09;;;;;;;5.50;3.05;;;;;;;6.13;77.68;98573.84;341813;28;1100;-75
2023/04/15 00:37:21;;;;;;;4.97;3.10;;;;;;;6.14;77.24;98570.38;342103;28;1125;-75
2023/04/15 00:37:34;;;;;;;4.75;2.90;;;;;;;6.15;77.63;98569.47;341635;28;1763;-75
2023/04/15 00:37:46;;;;;;;4.30;2.90;;;;;;;6.16;77.79;98563.44;341645;28;1234;-74
2023/04/15 00:37:58;;;;;;;5.32;3.00;;;;;;;6.16;77.33;98572.00;341236;28;1071;-75
2023/04/15 00:38:10;;;;;;;5.85;3.00;;;;;;;6.18;77.48;98571.97;339383;29;1152;-75
2023/04/15 00:38:22;;;;;;;5.50;2.85;;;;;;;6.17;77.32;98570.25;339502;29;1792;-74
2023/04/15 00:38:38;;;;;;;4.45;2.83;;;;;;;6.16;77.33;98568.59;339875;29;956;-74
2023/04/15 00:38:50;;;;;;;3.80;2.88;;;;;;;6.13;77.20;98568.66;339796;29;1034;-75
2023/04/15 00:39:02;;;;;;;4.70;2.83;;;;;;;6.13;77.84;98574.66;339784;29;1059;-75
2023/04/15 00:39:15;;;;;;;5.05;2.90;;;;;;;6.13;77.74;98563.50;339413;29;1071;-75
2023/04/15 00:39:27;;;;;;;4.75;2.95;;;;;;;6.12;77.80;98572.16;339835;29;1514;-75
2023/04/15 00:39:39;;;;;;;4.72;3.08;;;;;;;6.10;77.52;98566.22;339243;29;2141;-75
2023/04/15 00:39:51;;;;;;;5.03;3.00;;;;;;;6.12;77.80;98570.41;339768;29;1600;-75
2023/04/15 00:40:06;;;;;;;5.95;2.88;;;;;;;6.13;78.03;98568.66;339554;29;1322;-74
2023/04/15 00:40:20;;;;;;;6.10;2.70;;;;;;;6.16;77.82;98571.16;339087;29;2510;-75
2023/04/15 00:40:32;;;;;;;5.65;2.70;;;;;;;6.14;77.84;98565.22;339089;29;3024;-75
2023/04/15 00:40:44;;;;;;;5.68;2.70;;;;;;;6.13;77.72;98568.66;341059;28;1279;-74
2023/04/15 00:40:56;;;;;;;5.30;2.83;;;;;;;6.13;77.34;98568.66;339819;29;1116;-75
2023/04/15 00:41:09;;;;;;;5.15;3.00;;;;;;;6.13;77.59;98573.84;338686;29;1067;-74
2023/04/15 00:41:22;;;;;;;5.82;3.10;;;;;;;6.13;77.48;98569.50;338555;29;1320;-74
2023/04/15 00:41:34;;;;;;;6.82;3.10;;;;;;;6.11;77.44;98563.56;338550;29;1174;-74
2023/04/15 00:41:46;;;;;;;6.55;3.10;;;;;;;6.12;77.62;98572.16;338945;29;1257;-74
2023/04/15 00:41:58;;;;;;;6.78;3.35;;;;;;;6.14;77.52;98565.22;339714;29;1075;-75
2023/04/15 00:42:10;;;;;;;5.30;3.20;;;;;;;6.16;77.73;98568.59;339410;29;1859;-75
2023/04/15 00:42:23;;;;;;;5.47;2.95;;;;;;;6.14;77.82;98567.78;339773;29;5191;-74
2023/04/15 00:42:36;;;;;;;4.65;2.90;;;;;;;6.15;77.18;98572.03;339990;29;818;-74
2023/04/15 00:42:48;;;;;;;4.13;2.83;;;;;;;6.14;77.09;98568.63;339606;29;1059;-74
2023/04/15 00:43:00;;;;;;;4.55;2.90;;;;;;;6.16;76.88;98568.59;339752;29;1288;-75
2023/04/15 00:43:12;;;;;;;4.70;2.72;;;;;;;6.14;78.01;98566.06;339511;29;1832;-75
2023/04/15 00:43:25;;;;;;;4.68;2.88;;;;;;;6.15;78.12;98567.72;338533;29;1601;-74
2023/04/15 00:43:37;;;;;;;4.78;2.97;;;;;;;6.16;77.40;98568.59;340829;29;1167;-75
2023/04/15 00:43:49;;;;;;;5.40;3.08;;;;;;;6.17;77.77;98563.34;339597;29;1404;-75
2023/04/15 00:44:01;;;;;;;5.57;3.05;;;;;;;6.17;77.13;98565.09;339383;29;1259;-75
2023/04/15 00:44:13;;;;;;;5.82;2.90;;;;;;;6.19;77.32;98568.47;339811;29;1024;-75
2023/04/15 00:44:25;;;;;;;6.13;2.97;;;;;;;6.18;77.83;98567.63;340198;29;1080;-75
2023/04/15 00:44:37;;;;;;;6.43;2.85;;;;;;;6.17;77.70;98565.09;341329;28;1050;-75
2023/04/15 00:44:49;;;;;;;6.10;2.90;;;;;;;6.17;77.99;98573.69;341565;28;1602;-75
2023/04/15 00:45:01;;;;;;;5.47;2.90;;;;;;;6.20;78.47;98567.59;342408;28;1195;-75
2023/04/15 00:45:13;;;;;;;5.47;2.90;;;;;;;6.20;78.10;98557.28;342434;28;1902;-74
2023/04/15 00:45:26;;;;;;;6.38;2.90;;;;;;;6.20;78.81;98567.59;339403;29;1543;-75
2023/04/15 00:45:38;;;;;;;6.55;3.17;;;;;;;6.21;78.39;98564.09;339624;29;2012;-74
2023/04/15 00:45:53;;;;;;;4.60;3.10;;;;;;;6.21;78.31;98564.09;339519;29;1473;-74
2023/04/15 00:46:06;;;;;;;4.75;2.85;;;;;;;6.21;78.63;98566.69;339508;29;1769;-74
2023/04/15 00:46:21;;;;;;;5.97;2.78;;;;;;;6.22;78.49;98563.22;338292;29;1473;-74
2023/04/15 00:46:38;;;;;;;6.22;2.95;;;;;;;6.22;79.16;98562.38;339624;29;1210;-74
2023/04/15 00:46:50;;;;;;;5.30;3.20;;;;;;;6.24;78.75;98571.75;340529;28;1356;-74
2023/04/15 00:47:04;;;;;;;4.80;3.10;;;;;;;6.20;78.72;98568.44;340425;29;1543;-74
2023/04/15 00:47:17;;;;;;;4.88;3.00;;;;;;;6.21;78.53;98566.69;340639;29;1226;-75
2023/04/15 00:47:32;;;;;;;6.35;3.05;;;;;;;6.23;78.67;98564.91;340661;28;1745;-75
2023/04/15 00:47:44;;;;;;;6.32;3.10;;;;;;;6.23;78.57;98570.06;342168;28;1620;-75
2023/04/15 00:47:57;;;;;;;4.90;3.00;;;;;;;6.23;78.49;98562.31;342287;28;1370;-75
2023/04/15 00:48:10;;;;;;;4.75;2.90;;;;;;;6.21;78.39;98566.69;342509;28;1289;-75
2023/04/15 00:48:22;;;;;;;6.40;2.97;;;;;;;6.20;78.16;98571.00;342626;28;1325;-75
2023/04/15 00:48:37;;;;;;;6.07;3.10;;;;;;;6.20;79.07;98570.19;341946;28;1032;-75
2023/04/15 00:48:50;;;;;;;5.85;3.20;;;;;;;6.20;78.34;98565.00;339762;29;1234;-74
2023/04/15 00:49:06;;;;;;;6.78;3.05;;;;;;;6.21;78.06;98558.94;339604;29;1274;-75
2023/04/15 00:49:18;;;;;;;5.45;2.75;;;;;;;6.23;77.84;98569.22;339418;29;1325;-75
2023/04/15 00:49:31;;;;;;;4.85;2.90;;;;;;;6.22;78.49;98563.22;339964;29;1046;-75
2023/04/15 00:49:43;;;;;;;4.75;3.10;;;;;;;6.23;77.91;98570.06;340974;28;1796;-75
2023/04/15 00:49:54;;;;;;;4.75;3.03;;;;;;;6.23;77.71;98566.66;340975;28;1514;-75
2023/04/15 00:50:07;;;;;;;5.32;2.97;;;;;;;6.24;77.49;98560.56;340745;29;1019;-75
2023/04/15 00:50:19;;;;;;;5.70;3.13;;;;;;;6.24;77.32;98566.59;340579;29;1113;-75
2023/04/15 00:50:32;;;;;;;5.78;3.30;;;;;;;6.26;77.96;98566.53;338049;29;1375;-75
2023/04/15 00:50:44;;;;;;;9.68;3.22;;;;;;;6.27;77.60;98560.50;338325;29;1484;-74
2023/04/15 00:50:56;;;;;;;11.23;3.38;;;;;;;6.27;76.87;98566.50;339582;29;1314;-75
2023/04/15 00:51:08;;;;;;;7.03;3.25;;;;;;;6.28;76.96;98567.31;339464;29;1468;-75
2023/04/15 00:51:20;;;;;;;6.40;3.20;;;;;;;6.29;77.45;98564.69;339746;29;1158;-74
2023/04/15 00:51:35;;;;;;;7.05;3.15;;;;;;;6.29;77.27;98567.28;339786;29;1196;-74
2023/04/15 00:51:47;;;;;;;5.70;2.90;;;;;;;6.27;76.69;98566.50;338629;29;1662;-74
2023/04/15 00:51:59;;;;;;;4.07;2.83;;;;;;;6.27;77.10;98565.66;338160;29;1828;-75
2023/04/15 00:52:12;;;;;;;4.63;3.13;;;;;;;6.22;77.25;98558.06;339388;29;1254;-74
2023/04/15 00:52:23;;;;;;;5.25;3.20;;;;;;;6.24;77.16;98568.31;339759;29;1884;-75
2023/04/15 00:52:36;;;;;;;4.60;3.00;;;;;;;6.25;77.36;98563.13;337775;29;1074;-75
2023/04/15 00:52:48;;;;;;;4.82;3.03;;;;;;;6.25;77.36;98562.28;338579;29;1455;-75
2023/04/15 00:53:00;;;;;;;4.63;3.20;;;;;;;6.25;77.59;98565.69;339052;29;1259;-75
2023/04/15 00:53:12;;;;;;;6.65;3.20;;;;;;;6.27;77.56;98560.50;338421;29;1187;-75
2023/04/15 00:53:23;;;;;;;7.13;3.20;;;;;;;6.27;78.32;98565.66;338606;29;1933;-75
2023/04/15 00:53:35;;;;;;;8.38;3.33;;;;;;;6.26;77.44;98564.81;339605;29;1252;-75
2023/04/15 00:53:50;;;;;;;7.20;3.58;;;;;;;6.29;76.94;98563.88;339661;29;1444;-74
2023/04/15 00:54:03;;;;;;;7.22;3.60;;;;;;;6.29;77.38;98569.03;339588;29;1601;-75
2023/04/15 00:54:16;;;;;;;6.97;3.08;;;;;;;6.28;76.87;98557.88;340918;29;1336;-74
2023/04/15 00:54:28;;;;;;;7.07;2.90;;;;;;;6.29;77.04;98559.53;340826;29;1241;-74
2023/04/15 00:54:40;;;;;;;6.18;2.97;;;;;;;6.27;77.05;98566.50;341492;28;1149;-75
2023/04/15 00:54:52;;;;;;;5.53;3.28;;;;;;;6.29;76.39;98559.53;342100;28;1496;-75
2023/04/15 00:55:05;;;;;;;5.53;2.95;;;;;;;6.26;76.82;98564.81;340886;29;1164;-75
2023/04/15 00:55:18;;;;;;;4.90;2.80;;;;;;;6.27;76.89;98561.31;340903;29;1226;-75
2023/04/15 00:55:30;;;;;;;4.28;2.92;;;;;;;6.26;76.80;98564.81;340645;29;1705;-75
2023/04/15 00:55:42;;;;;;;5.22;3.10;;;;;;;6.26;77.45;98557.06;339633;29;1109;-74
2023/04/15 00:55:54;;;;;;;5.57;3.20;;;;;;;6.25;77.55;98563.13;340922;29;1329;-75
2023/04/15 00:56:06;;;;;;;5.43;3.10;;;;;;;6.26;77.91;98564.81;341019;29;1020;-75
2023/04/15 00:56:23;;;;;;;6.38;3.20;;;;;;;6.23;77.57;98559.75;340743;29;746;-74
2023/04/15 00:56:37;;;;;;;7.03;3.25;;;;;;;6.23;77.89;98569.22;340856;29;1069;-74
2023/04/15 00:56:48;;;;;;;6.35;3.08;;;;;;;6.22;77.57;98565.81;340968;29;1134;-74
2023/04/15 00:57:00;;;;;;;6.30;2.85;;;;;;;6.21;78.36;98561.53;339731;29;2005;-75
2023/04/15 00:57:12;;;;;;;4.80;2.75;;;;;;;6.21;78.14;98566.69;341905;28;1340;-75
2023/04/15 00:57:25;;;;;;;5.10;2.72;;;;;;;6.21;78.84;98564.09;342478;28;1672;-75
2023/04/15 00:57:39;;;;;;;6.15;2.90;;;;;;;6.19;77.97;98565.91;342331;28;1068;-75
2023/04/15 00:57:51;;;;;;;6.00;3.10;;;;;;;6.21;77.69;98558.94;339978;29;1583;-75
2023/04/15 00:58:03;;;;;;;4.55;3.20;;;;;;;6.22;78.30;98563.22;339440;29;1103;-75
2023/04/15 00:58:16;;;;;;;4.70;3.17;;;;;;;6.24;78.18;98561.44;339672;29;1171;-74
2023/04/15 00:58:28;;;;;;;6.78;3.20;;;;;;;6.20;78.30;98565.00;340716;29;1497;-75
2023/04/15 00:58:50;;;;;;;10.27;3.40;;;;;;;6.18;77.65;98564.22;340033;29;2453;-75
2023/04/15 00:59:03;;;;;;;8.30;3.15;;;;;;;6.16;78.24;98561.69;338304;29;1080;-75
2023/04/15 00:59:16;;;;;;;4.43;3.08;;;;;;;6.19;78.48;98563.31;338012;29;972;-75
2023/04/15 00:59:30;;;;;;;4.25;3.05;;;;;;;6.18;77.91;98565.06;338169;29;1121;-75
2023/04/15 00:59:42;;;;;;;4.95;3.10;;;;;;;6.21;78.45;98566.69;339525;29;1076;-75
2023/04/15 00:59:55;;;;;;;6.18;3.20;;;;;;;6.20;77.65;98567.59;341473;28;1035;-74
2023/04/15 01:00:08;;;;;;;5.93;3.20;;;;;;;6.18;77.73;98562.47;342404;28;1279;-75
2023/04/15 01:00:20;;;;;;;5.20;3.17;;;;;;;6.21;77.79;98561.53;342284;28;1116;-75
2023/04/15 01:00:33;;;;;;;5.50;3.33;;;;;;;6.22;78.20;98568.38;340951;29;1189;-75
2023/04/15 01:00:45;;;;;;;5.57;3.60;;;;;;;6.16;78.21;98566.00;341001;28;1979;-75
2023/04/15 01:00:58;;;;;;;4.97;3.47;;;;;;;6.19;78.42;98560.72;342236;28;1031;-75
2023/04/15 01:01:10;;;;;;;4.32;3.10;;;;;;;6.20;78.28;98567.59;342452;28;1323;-75
2023/04/15 01:01:23;;;;;;;5.65;3.00;;;;;;;6.21;78.13;98571.84;342344;28;1356;-74
2023/04/15 01:01:37;;;;;;;5.57;2.90;;;;;;;6.23;77.54;98569.22;342089;28;1019;-75
2023/04/15 01:01:49;;;;;;;4.75;2.83;;;;;;;6.22;77.52;98568.38;341248;28;1574;-74